Time;durP1;ratioP1;P1;durP2;ratioP2;P2;SDS_P1;SDS_P2;PMS_P1;PMS_P2;Temp;Humidity;BMP_temperature;BMP_pressure;BME280_temperature;BME280_humidity;BME280_pressure;Samples;Min_cycle;Max_cycle;Signal;HPM_P1;HPM_P2
2022/01/07 00:02:09;;;;;;;6.18;1.38;;;;;;;5.44;100.00;98804.94;4937499;29;20051;-80
2022/01/07 00:05:13;;;;;;;2.83;0.93;;;;;;;5.31;100.00;98807.13;4925316;29;20242;-79
2022/01/07 00:08:17;;;;;;;7.78;0.70;;;;;;;5.22;100.00;98812.69;4936842;29;20050;-80
2022/01/07 00:11:21;;;;;;;2.17;0.40;;;;;;;5.21;100.00;98805.66;4925366;29;20058;-80
2022/01/07 00:14:24;;;;;;;0.47;0.47;;;;;;;5.22;100.00;98807.16;4924980;29;20513;-80
2022/01/07 00:17:28;;;;;;;20.88;1.05;;;;;;;5.16;100.00;98806.25;4924599;29;20058;-80
2022/01/07 00:20:31;;;;;;;0.20;0.20;;;;;;;5.14;100.00;98808.72;4924918;29;20054;-79
2022/01/07 00:23:35;;;;;;;0.20;0.20;;;;;;;4.99;100.00;98805.84;4925423;29;20058;-79
2022/01/07 00:26:38;;;;;;;0.20;0.20;;;;;;;4.80;100.00;98811.88;4937446;29;20055;-80
2022/01/07 00:29:41;;;;;;;1.90;1.15;;;;;;;4.74;100.00;98813.72;4924854;29;20060;-80
2022/01/07 00:32:45;;;;;;;8.63;0.95;;;;;;;4.75;100.00;98813.25;4935743;29;20521;-79
2022/01/07 00:35:50;;;;;;;4.32;1.38;;;;;;;4.90;100.00;98807.84;4925225;29;20055;-80
2022/01/07 00:38:54;;;;;;;0.20;0.20;;;;;;;5.02;100.00;98804.16;4936671;29;20239;-79
2022/01/07 00:41:57;;;;;;;0.17;0.17;;;;;;;5.18;100.00;98803.81;4938572;29;20433;-79
2022/01/07 00:45:02;;;;;;;12.85;0.73;;;;;;;5.23;100.00;98803.19;4936382;29;20051;-79
2022/01/07 00:48:06;;;;;;;0.80;0.63;;;;;;;5.33;100.00;98799.16;4935609;29;20050;-80
2022/01/07 00:51:09;;;;;;;4.45;1.45;;;;;;;5.31;100.00;98790.56;4919280;29;20059;-79
2022/01/07 00:54:12;;;;;;;1.30;0.20;;;;;;;5.35;100.00;98791.94;4935909;29;20059;-80
2022/01/07 00:57:16;;;;;;;0.10;0.10;;;;;;;5.27;100.00;98779.72;4936442;29;20517;-80
2022/01/07 01:00:21;;;;;;;0.20;0.20;;;;;;;5.12;100.00;98780.84;4935800;29;20410;-79
2022/01/07 01:03:25;;;;;;;0.20;0.20;;;;;;;5.00;100.00;98787.31;4936243;29;20051;-79
2022/01/07 01:06:28;;;;;;;0.10;0.10;;;;;;;4.99;100.00;98786.53;4923470;29;20051;-79
2022/01/07 01:09:32;;;;;;;0.15;0.15;;;;;;;5.00;100.00;98787.31;4935878;29;20054;-79
2022/01/07 01:12:37;;;;;;;0.20;0.20;;;;;;;4.95;100.00;98793.44;4935486;29;20536;-79
2022/01/07 01:15:41;;;;;;;0.63;0.63;;;;;;;4.84;100.00;98790.41;4936316;29;20063;-79
2022/01/07 01:18:44;;;;;;;0.90;0.70;;;;;;;4.65;100.00;98794.41;4935880;29;20086;-79
2022/01/07 01:21:49;;;;;;;0.28;0.28;;;;;;;4.52;100.00;98802.84;4923896;29;20498;-79
2022/01/07 01:24:52;;;;;;;0.10;0.10;;;;;;;4.51;100.00;98793.03;4923594;29;20054;-80
2022/01/07 01:27:56;;;;;;;0.20;0.20;;;;;;;4.51;100.00;98791.06;4935874;29;20055;-80
2022/01/07 01:30:59;;;;;;;0.20;0.20;;;;;;;4.43;100.00;98795.34;4936105;29;20498;-79
2022/01/07 01:34:04;;;;;;;0.20;0.20;;;;;;;4.47;100.00;98776.66;4935691;29;20402;-80
2022/01/07 01:37:07;;;;;;;2.25;0.43;;;;;;;4.45;100.00;98770.84;4935723;29;20050;-79
2022/01/07 01:40:12;;;;;;;0.20;0.20;;;;;;;4.37;100.00;98774.38;4928357;29;20054;-79
2022/01/07 01:43:16;;;;;;;0.20;0.20;;;;;;;4.43;100.00;98773.31;4934708;29;20406;-79
2022/01/07 01:46:20;;;;;;;0.47;0.32;;;;;;;4.48;100.00;98769.91;4935332;29;20055;-80
2022/01/07 01:49:24;;;;;;;0.20;0.20;;;;;;;4.51;100.00;98774.53;4923396;29;20074;-80
2022/01/07 01:52:27;;;;;;;2.70;0.55;;;;;;;4.58;100.00;98778.97;4918304;29;20518;-79
2022/01/07 01:55:31;;;;;;;0.20;0.20;;;;;;;4.65;100.00;98786.91;4922998;29;20066;-80
2022/01/07 01:58:35;;;;;;;0.10;0.00;;;;;;;4.74;100.00;98781.41;4934184;29;20059;-80
2022/01/07 02:01:40;;;;;;;1.40;0.20;;;;;;;4.87;100.00;98781.22;4922390;29;20054;-80
2022/01/07 02:04:43;;;;;;;0.75;0.75;;;;;;;5.06;100.00;98779.94;4934770;29;20054;-80
2022/01/07 02:07:47;;;;;;;0.10;0.10;;;;;;;5.22;100.00;98788.63;4935080;29;20070;-79
2022/01/07 02:10:51;;;;;;;0.32;0.32;;;;;;;5.38;100.00;98770.94;4934768;29;20062;-80
2022/01/07 02:13:55;;;;;;;0.10;0.10;;;;;;;5.48;100.00;98777.94;4923268;29;20063;-79
2022/01/07 02:17:10;;;;;;;0.77;0.15;;;;;;;5.54;100.00;98776.09;4933882;29;20117;-80
2022/01/07 02:20:16;;;;;;;0.68;0.68;;;;;;;5.68;100.00;98780.91;4933815;29;20054;-80
2022/01/07 02:23:20;;;;;;;0.10;0.10;;;;;;;5.73;100.00;98777.50;4922571;29;20517;-80
2022/01/07 02:26:23;;;;;;;0.90;0.75;;;;;;;5.77;100.00;98783.63;4922986;29;20058;-79
2022/01/07 02:29:26;;;;;;;5.20;0.40;;;;;;;5.65;100.00;98786.59;4934588;29;20059;-80
2022/01/07 02:32:30;;;;;;;1.52;0.40;;;;;;;5.66;100.00;98788.91;4922552;29;20075;-79
2022/01/07 02:35:35;;;;;;;0.10;0.10;;;;;;;5.74;100.00;98784.56;4923041;29;20434;-80
2022/01/07 02:38:39;;;;;;;1.00;0.32;;;;;;;5.72;100.00;98775.97;4922692;29;20067;-79
2022/01/07 02:41:42;;;;;;;0.10;0.10;;;;;;;5.51;100.00;98777.00;4931433;29;20113;-80
2022/01/07 02:44:45;;;;;;;0.10;0.10;;;;;;;5.32;100.00;98775.56;4934150;29;20071;-79
2022/01/07 02:47:55;;;;;;;0.20;0.20;;;;;;;4.99;100.00;98777.50;4934416;29;20054;-80
2022/01/07 02:50:59;;;;;;;0.20;0.20;;;;;;;4.84;100.00;98771.88;4920191;29;20066;-80
2022/01/07 02:54:03;;;;;;;0.20;0.10;;;;;;;4.68;100.00;98766.69;4922337;29;20054;-80
2022/01/07 02:57:06;;;;;;;4.68;0.70;;;;;;;4.65;100.00;98761.34;4933296;29;20054;-79
2022/01/07 03:00:11;;;;;;;0.20;0.20;;;;;;;4.48;100.00;98767.16;4921447;29;20054;-80
2022/01/07 03:03:14;;;;;;;0.13;0.13;;;;;;;4.46;100.00;98772.38;4933913;29;20063;-80
2022/01/07 03:06:21;;;;;;;0.40;0.32;;;;;;;4.36;100.00;98761.81;4922290;29;20059;-80
2022/01/07 03:09:24;;;;;;;0.10;0.10;;;;;;;4.19;100.00;98758.59;4932865;29;20051;-79
2022/01/07 03:12:28;;;;;;;0.30;0.30;;;;;;;4.17;100.00;98771.31;4922116;29;20066;-79
2022/01/07 03:15:34;;;;;;;0.20;0.20;;;;;;;4.19;100.00;98772.38;4933656;29;20055;-79
2022/01/07 03:18:38;;;;;;;0.20;0.20;;;;;;;4.28;100.00;98766.09;4933884;29;20410;-79
2022/01/07 03:21:42;;;;;;;0.17;0.17;;;;;;;4.33;100.00;98769.00;4932044;29;20505;-80
2022/01/07 03:24:45;;;;;;;0.10;0.10;;;;;;;4.38;100.00;98757.38;4933888;29;20062;-79
2022/01/07 03:27:49;;;;;;;0.28;0.28;;;;;;;4.39;100.00;98761.69;4922447;29;20050;-79
2022/01/07 03:30:52;;;;;;;0.10;0.10;;;;;;;4.32;100.00;98761.97;4921986;29;20132;-79
2022/01/07 03:33:56;;;;;;;0.25;0.25;;;;;;;4.39;100.00;98749.88;4933133;29;20074;-80
2022/01/07 03:36:59;;;;;;;0.90;0.40;;;;;;;4.46;100.00;98761.34;4933556;29;20055;-79
2022/01/07 03:40:04;;;;;;;0.20;0.20;;;;;;;4.63;100.00;98758.28;4937345;29;20496;-79
2022/01/07 03:43:07;;;;;;;0.20;0.20;;;;;;;4.83;100.00;98753.78;4937316;29;20062;-80
2022/01/07 03:46:10;;;;;;;0.20;0.20;;;;;;;4.85;100.00;98758.84;4922078;29;20059;-80
2022/01/07 03:49:14;;;;;;;0.20;0.20;;;;;;;4.85;100.00;98758.84;4933095;29;20051;-79
2022/01/07 03:52:17;;;;;;;0.15;0.15;;;;;;;4.81;100.00;98763.75;4943509;28;20055;-80
2022/01/07 03:55:24;;;;;;;0.17;0.17;;;;;;;4.79;100.00;98755.16;4932911;29;20067;-79
2022/01/07 03:58:28;;;;;;;0.17;0.17;;;;;;;4.84;100.00;98749.03;4933679;29;20403;-79
2022/01/07 04:01:31;;;;;;;0.10;0.10;;;;;;;4.89;100.00;98742.91;4933295;29;20078;-79
2022/01/07 04:04:35;;;;;;;0.15;0.15;;;;;;;4.89;100.00;98742.91;4921251;29;20055;-79
2022/01/07 04:07:38;;;;;;;0.20;0.20;;;;;;;4.91;100.00;98730.19;4932930;29;20226;-79
2022/01/07 04:10:41;;;;;;;0.10;0.10;;;;;;;4.79;100.00;98733.88;4921249;29;20059;-79
2022/01/07 04:13:45;;;;;;;1.95;0.93;;;;;;;4.78;100.00;98731.59;4933031;29;20070;-79
2022/01/07 04:16:48;;;;;;;0.20;0.20;;;;;;;4.80;100.00;98740.94;4921561;29;20063;-79
2022/01/07 04:19:52;;;;;;;0.30;0.20;;;;;;;4.91;100.00;98732.94;4933305;29;20051;-79
2022/01/07 04:22:56;;;;;;;0.25;0.25;;;;;;;4.86;100.00;98732.78;4925420;29;20062;-79
2022/01/07 04:25:59;;;;;;;0.20;0.20;;;;;;;4.72;100.00;98722.41;4936662;29;20054;-79
2022/01/07 04:29:03;;;;;;;0.20;0.20;;;;;;;4.61;100.00;98720.88;4936796;29;20063;-79
2022/01/07 04:32:07;;;;;;;0.10;0.10;;;;;;;4.54;100.00;98735.00;4936389;29;20051;-79
2022/01/07 04:35:12;;;;;;;0.47;0.30;;;;;;;4.59;100.00;98742.66;4936845;29;20054;-79
2022/01/07 04:38:16;;;;;;;0.43;0.43;;;;;;;4.70;100.00;98738.66;4937031;29;20054;-79
2022/01/07 04:41:20;;;;;;;0.10;0.10;;;;;;;4.68;100.00;98744.63;4950109;29;20055;-79
2022/01/07 04:44:23;;;;;;;0.22;0.22;;;;;;;4.93;100.00;98749.00;4936752;29;20050;-79
2022/01/07 04:47:27;;;;;;;0.30;0.30;;;;;;;5.02;100.00;98741.50;4935975;29;20059;-80
2022/01/07 04:50:31;;;;;;;0.10;0.10;;;;;;;4.92;100.00;98736.44;4935549;29;20088;-79
2022/01/07 04:53:34;;;;;;;0.38;0.38;;;;;;;4.65;100.00;98745.56;4924787;29;20124;-79
2022/01/07 04:56:38;;;;;;;0.15;0.15;;;;;;;4.68;100.00;98743.88;4936387;29;20062;-80
2022/01/07 04:59:41;;;;;;;0.60;0.25;;;;;;;4.68;100.00;98728.06;4924279;29;20074;-79
2022/01/07 05:02:45;;;;;;;15.38;0.90;;;;;;;4.73;100.00;98729.44;4924744;29;20051;-79
2022/01/07 05:05:58;;;;;;;0.38;0.30;;;;;;;4.63;100.00;98734.22;4924326;29;20055;-79
2022/01/07 05:09:02;;;;;;;0.17;0.17;;;;;;;4.59;100.00;98741.91;4935413;29;20062;-80
2022/01/07 05:12:06;;;;;;;0.32;0.32;;;;;;;4.59;100.00;98748.16;4923486;29;20504;-79
2022/01/07 05:15:12;;;;;;;0.20;0.20;;;;;;;4.63;100.00;98747.25;4935775;29;20054;-79
2022/01/07 05:18:15;;;;;;;0.13;0.13;;;;;;;4.78;100.00;98753.66;4924103;29;20058;-80
2022/01/07 05:21:19;;;;;;;0.20;0.20;;;;;;;5.00;100.00;98760.47;4934809;29;20054;-79
2022/01/07 05:24:22;;;;;;;0.10;0.10;;;;;;;5.05;100.00;98753.56;4924088;29;20051;-79
2022/01/07 05:27:25;;;;;;;0.22;0.22;;;;;;;5.06;100.00;98741.31;4935010;29;20058;-79
2022/01/07 05:30:29;;;;;;;0.10;0.10;;;;;;;4.98;100.00;98751.91;4923629;29;20070;-79
2022/01/07 05:33:32;;;;;;;1.50;0.65;;;;;;;4.91;100.00;98743.19;4922598;29;20426;-80
2022/01/07 05:36:37;;;;;;;1.88;0.30;;;;;;;4.85;100.00;98753.34;4934813;29;20056;-78
2022/01/07 05:39:41;;;;;;;1.85;0.55;;;;;;;5.11;100.00;98765.53;4936274;29;20066;-79
2022/01/07 05:42:45;;;;;;;0.20;0.20;;;;;;;5.08;100.00;98777.47;4935248;29;20058;-80
2022/01/07 05:45:49;;;;;;;0.88;0.75;;;;;;;5.12;100.00;98772.56;4934058;29;20407;-79
2022/01/07 05:48:52;;;;;;;0.38;0.38;;;;;;;5.23;100.00;98781.88;4911795;29;20050;-79
2022/01/07 05:51:55;;;;;;;0.20;0.20;;;;;;;5.32;100.00;98779.09;4931160;29;20058;-79
2022/01/07 05:54:58;;;;;;;0.30;0.28;;;;;;;5.33;100.00;98777.06;4923520;29;20050;-79
2022/01/07 05:58:02;;;;;;;6.28;0.80;;;;;;;5.37;100.00;98777.69;4922545;29;20055;-79
2022/01/07 06:01:05;;;;;;;0.10;0.10;;;;;;;5.44;100.00;98771.03;4934363;29;20055;-79
2022/01/07 06:04:09;;;;;;;0.55;0.20;;;;;;;5.52;100.00;98778.53;4922643;29;20058;-79
2022/01/07 06:07:12;;;;;;;0.30;0.30;;;;;;;5.50;100.00;98792.03;4923234;29;20156;-79
2022/01/07 06:10:16;;;;;;;0.20;0.20;;;;;;;5.49;100.00;98789.75;4934472;29;20062;-79
2022/01/07 06:13:19;;;;;;;2.60;1.02;;;;;;;5.49;100.00;98785.00;4934700;29;20449;-80
2022/01/07 06:16:22;;;;;;;3.60;0.40;;;;;;;5.48;100.00;98775.16;4934625;29;20116;-79
2022/01/07 06:19:26;;;;;;;0.20;0.20;;;;;;;5.49;100.00;98779.47;4934254;29;20050;-79
2022/01/07 06:22:29;;;;;;;0.40;0.40;;;;;;;5.58;100.00;98782.19;4922856;29;20051;-80
2022/01/07 06:25:33;;;;;;;4.32;0.30;;;;;;;5.57;100.00;98780.66;4934568;29;20414;-79
2022/01/07 06:28:36;;;;;;;0.20;0.20;;;;;;;5.54;100.00;98784.38;4923228;29;20051;-79
2022/01/07 06:31:40;;;;;;;0.10;0.10;;;;;;;5.48;100.00;98783.44;4922573;29;20442;-79
2022/01/07 06:34:43;;;;;;;0.10;0.10;;;;;;;5.33;100.00;98777.06;4922583;29;20054;-79
2022/01/07 06:37:47;;;;;;;0.70;0.70;;;;;;;5.23;100.00;98772.81;4934105;29;20062;-79
2022/01/07 06:40:50;;;;;;;0.17;0.17;;;;;;;5.30;100.00;98784.31;4928092;29;20058;-79
2022/01/07 06:43:54;;;;;;;0.32;0.32;;;;;;;5.27;100.00;98778.94;4934166;29;20406;-79
2022/01/07 06:46:57;;;;;;;4.85;1.55;;;;;;;5.25;100.00;98778.66;4934176;29;20513;-79
2022/01/07 06:50:00;;;;;;;0.17;0.17;;;;;;;5.29;100.00;98776.47;4922381;29;20058;-80
2022/01/07 06:53:04;;;;;;;1.77;1.63;;;;;;;5.37;100.00;98777.69;4934467;29;20059;-79
2022/01/07 06:56:08;;;;;;;9.70;1.33;;;;;;;5.44;100.00;98777.34;4921901;29;20051;-80
2022/01/07 06:59:12;;;;;;;4.95;1.67;;;;;;;5.48;100.00;98791.72;4922071;29;20051;-79
2022/01/07 07:02:16;;;;;;;8.88;3.00;;;;;;;5.54;100.00;98792.66;4933886;29;20058;-79
2022/01/07 07:05:20;;;;;;;1.55;0.73;;;;;;;5.60;100.00;98790.78;4922221;29;20231;-79
2022/01/07 07:08:23;;;;;;;0.95;0.73;;;;;;;5.54;100.00;98789.88;4934193;29;20124;-80
2022/01/07 07:11:27;;;;;;;0.20;0.20;;;;;;;5.57;100.00;98797.22;4933550;29;20059;-80
2022/01/07 07:14:30;;;;;;;1.27;1.17;;;;;;;5.46;100.00;98785.91;4933528;29;20055;-79
2022/01/07 07:17:33;;;;;;;0.10;0.10;;;;;;;5.47;100.00;98781.94;4922817;29;20054;-80
2022/01/07 07:20:37;;;;;;;11.05;1.25;;;;;;;5.37;100.00;98783.97;4921659;29;20052;-85
2022/01/07 07:23:40;;;;;;;16.55;1.67;;;;;;;5.31;100.00;98785.81;4921739;29;20059;-82
2022/01/07 07:26:44;;;;;;;0.10;0.10;;;;;;;5.36;100.00;98784.44;4921564;29;20051;-81
2022/01/07 07:29:47;;;;;;;5.28;0.47;;;;;;;5.45;100.00;98780.88;4921640;29;20078;-82
2022/01/07 07:32:53;;;;;;;0.60;0.60;;;;;;;5.36;100.00;98789.94;4933488;29;20556;-81
2022/01/07 07:39:35;;;;;;;1.70;1.05;;;;;;;5.45;100.00;98789.16;4919279;29;20062;-82
2022/01/07 07:42:39;;;;;;;0.20;0.20;;;;;;;5.33;100.00;98793.63;4925281;29;20075;-81
2022/01/07 07:45:42;;;;;;;2.45;0.88;;;;;;;5.38;100.00;98806.81;4922058;29;20058;-82
2022/01/07 07:48:47;;;;;;;0.10;0.10;;;;;;;5.37;100.00;98797.03;4921289;29;20073;-82
2022/01/07 07:51:51;;;;;;;0.10;0.10;;;;;;;5.33;100.00;98799.16;4922252;29;20426;-82
2022/01/07 07:54:55;;;;;;;0.28;0.28;;;;;;;5.23;100.00;98797.66;4921570;29;20248;-81
2022/01/07 07:57:58;;;;;;;0.10;0.10;;;;;;;5.18;100.00;98809.31;4925512;29;20414;-82
2022/01/07 08:01:02;;;;;;;0.10;0.10;;;;;;;5.12;100.00;98811.97;4923897;29;20513;-81
2022/01/07 08:04:07;;;;;;;0.10;0.10;;;;;;;5.09;100.00;98817.66;4925609;29;20050;-80
2022/01/07 08:07:16;;;;;;;0.15;0.15;;;;;;;5.16;100.00;98828.34;4924731;29;21121;-80
2022/01/07 08:10:23;;;;;;;0.15;0.15;;;;;;;5.11;100.00;98821.44;4925556;29;20063;-80
2022/01/07 08:13:31;;;;;;;0.17;0.17;;;;;;;5.09;100.00;98818.41;4924907;29;20443;-81
2022/01/07 08:16:34;;;;;;;0.40;0.40;;;;;;;5.02;100.00;98815.97;4925467;29;20063;-80
2022/01/07 08:19:38;;;;;;;0.40;0.40;;;;;;;4.99;100.00;98824.41;4937089;29;20055;-80
2022/01/07 08:22:42;;;;;;;0.55;0.32;;;;;;;4.83;100.00;98824.75;4923750;29;20050;-80
2022/01/07 08:25:46;;;;;;;0.50;0.43;;;;;;;4.89;100.00;98820.13;4935394;29;20059;-81
2022/01/07 08:28:57;;;;;;;0.20;0.20;;;;;;;4.91;100.00;98829.47;4934293;29;20406;-81
2022/01/07 08:35:22;;;;;;;0.10;0.10;;;;;;;4.61;100.00;98833.19;4935167;29;20051;-80
2022/01/07 08:38:26;;;;;;;0.77;0.77;;;;;;;4.58;100.00;98828.59;4932323;29;20513;-80
2022/01/07 08:41:30;;;;;;;0.10;0.08;;;;;;;4.53;100.00;98827.19;4921319;29;20406;-80
2022/01/07 08:44:34;;;;;;;0.10;0.10;;;;;;;4.56;100.00;98829.06;4932831;29;20406;-81
2022/01/07 08:47:37;;;;;;;0.20;0.20;;;;;;;4.71;100.00;98836.69;4934565;29;20062;-81
2022/01/07 08:50:41;;;;;;;2.17;0.55;;;;;;;4.85;100.00;98833.31;4934295;29;20525;-81
2022/01/07 08:53:44;;;;;;;0.10;0.10;;;;;;;4.98;100.00;98828.41;4934112;29;20058;-82
2022/01/07 08:56:48;;;;;;;0.20;0.20;;;;;;;5.18;100.00;98825.88;4933731;29;20410;-81
2022/01/07 08:59:52;;;;;;;0.20;0.20;;;;;;;5.32;100.00;98831.53;4929648;29;20176;-81
2022/01/07 09:02:55;;;;;;;0.10;0.10;;;;;;;5.35;100.00;98840.84;4936784;29;20055;-82
2022/01/07 09:05:58;;;;;;;0.10;0.10;;;;;;;5.42;100.00;98840.53;4935448;29;20163;-80
2022/01/07 09:09:03;;;;;;;0.60;0.60;;;;;;;5.41;100.00;98843.78;4922199;29;20062;-80
2022/01/07 09:12:07;;;;;;;0.25;0.25;;;;;;;5.39;100.00;98852.53;4933774;29;20615;-80
2022/01/07 09:15:12;;;;;;;0.30;0.30;;;;;;;5.35;100.00;98857.41;4923492;29;20054;-80
2022/01/07 09:18:15;;;;;;;0.10;0.10;;;;;;;5.38;100.00;98842.69;4935532;29;20066;-80
2022/01/07 09:21:19;;;;;;;0.20;0.20;;;;;;;5.31;100.00;98865.88;4923631;29;20058;-80
2022/01/07 09:24:23;;;;;;;0.80;0.47;;;;;;;5.34;100.00;98866.94;4913158;29;20050;-80
2022/01/07 09:27:26;;;;;;;0.30;0.10;;;;;;;5.44;100.00;98870.44;4935125;29;20059;-80
2022/01/07 09:30:30;;;;;;;0.20;0.20;;;;;;;5.56;100.00;98861.97;4923859;29;20063;-80
2022/01/07 09:33:34;;;;;;;0.10;0.10;;;;;;;5.61;100.00;98864.09;4934795;29;20391;-80
2022/01/07 09:36:38;;;;;;;0.28;0.28;;;;;;;5.63;100.00;98871.94;4935292;29;20065;-80
2022/01/07 09:39:41;;;;;;;2.10;0.50;;;;;;;5.63;100.00;98878.19;4938213;29;20063;-79
2022/01/07 09:42:59;;;;;;;0.20;0.15;;;;;;;5.71;100.00;98890.47;4932925;29;20402;-78
2022/01/07 09:46:02;;;;;;;10.05;0.40;;;;;;;5.83;100.00;98894.25;4922076;29;20051;-79
2022/01/07 09:49:06;;;;;;;0.20;0.20;;;;;;;5.85;100.00;98895.34;4922918;29;20055;-79
2022/01/07 09:52:10;;;;;;;0.10;0.10;;;;;;;5.90;100.00;98899.47;4923785;29;20402;-80
2022/01/07 09:55:14;;;;;;;0.60;0.60;;;;;;;5.85;100.00;98906.38;4935312;29;20524;-79
2022/01/07 09:58:17;;;;;;;0.10;0.10;;;;;;;5.82;100.00;98907.31;4922958;29;20132;-80
2022/01/07 10:01:23;;;;;;;0.10;0.10;;;;;;;5.83;100.00;98908.81;4923274;29;20058;-79
2022/01/07 10:04:33;;;;;;;0.80;0.32;;;;;;;5.82;100.00;98923.88;4923140;29;20051;-80
2022/01/07 10:07:37;;;;;;;0.43;0.43;;;;;;;5.90;100.00;98922.34;4934495;29;20200;-79
2022/01/07 10:10:40;;;;;;;0.50;0.50;;;;;;;5.99;100.00;98922.31;4912422;29;20417;-80
2022/01/07 10:13:49;;;;;;;1.17;0.68;;;;;;;6.15;100.00;98925.94;4934532;29;20055;-79
2022/01/07 10:16:57;;;;;;;6.22;2.00;;;;;;;6.27;100.00;98924.94;4934985;29;20110;-80
2022/01/07 10:20:01;;;;;;;0.93;0.90;;;;;;;6.38;100.00;98922.41;4919161;29;20062;-79
2022/01/07 10:23:24;;;;;;;0.68;0.68;;;;;;;6.42;100.00;98923.00;4934488;29;20466;-80
2022/01/07 10:26:29;;;;;;;25.55;1.10;;;;;;;6.38;100.00;98936.25;4935141;29;20054;-79
2022/01/07 10:29:37;;;;;;;10.52;1.35;;;;;;;6.30;100.00;98933.06;4922795;29;20501;-80
2022/01/07 10:32:41;;;;;;;1.85;0.75;;;;;;;6.24;100.00;98948.00;4923322;29;20422;-78
2022/01/07 10:35:48;;;;;;;0.60;0.60;;;;;;;6.20;100.00;98947.38;4922912;29;20055;-79
2022/01/07 10:39:04;;;;;;;0.65;0.65;;;;;;;6.22;100.00;98953.19;4934142;29;20063;-79
2022/01/07 10:42:08;;;;;;;0.10;0.10;;;;;;;6.18;100.00;98953.38;4934377;29;20063;-80
2022/01/07 10:45:11;;;;;;;0.22;0.22;;;;;;;6.18;100.00;98966.44;4934359;29;20078;-78
2022/01/07 10:48:16;;;;;;;2.05;0.95;;;;;;;6.26;100.00;98956.59;4921959;29;20063;-79
2022/01/07 10:51:23;;;;;;;0.60;0.60;;;;;;;6.31;100.00;98947.63;4934180;29;20166;-80
2022/01/07 10:54:26;;;;;;;0.15;0.13;;;;;;;6.48;100.00;98934.94;4934669;29;20055;-79
2022/01/07 10:57:44;;;;;;;10.88;0.80;;;;;;;6.66;100.00;98951.44;4934397;29;20172;-79
2022/01/07 11:00:47;;;;;;;1.95;0.10;;;;;;;6.70;100.00;98946.47;4934388;29;20055;-79
2022/01/07 11:03:59;;;;;;;0.17;0.17;;;;;;;6.68;100.00;98949.72;4933641;29;20051;-79
2022/01/07 11:07:12;;;;;;;0.10;0.10;;;;;;;6.77;100.00;98943.38;4932844;29;20059;-78
2022/01/07 11:10:17;;;;;;;0.20;0.20;;;;;;;6.80;100.00;98934.09;4934124;29;20103;-81
2022/01/07 11:13:21;;;;;;;0.17;0.17;;;;;;;6.73;100.00;98949.09;4922362;29;20411;-79
2022/01/07 11:16:24;;;;;;;14.15;0.82;;;;;;;6.74;100.00;98931.25;4925673;29;20055;-80
2022/01/07 11:19:37;;;;;;;0.10;0.10;;;;;;;6.69;100.00;98923.59;4933640;29;20051;-80
2022/01/07 11:22:47;;;;;;;14.63;1.63;;;;;;;6.63;100.00;98930.22;4933968;29;20051;-80
2022/01/07 11:25:59;;;;;;;3.15;0.85;;;;;;;6.64;100.00;98931.78;4933758;29;20505;-81
2022/01/07 11:29:06;;;;;;;1.75;0.35;;;;;;;6.55;100.00;98921.53;4921739;29;20058;-80
2022/01/07 11:32:25;;;;;;;0.65;0.65;;;;;;;6.55;100.00;98929.84;4933153;29;20098;-81
2022/01/07 11:35:28;;;;;;;0.17;0.17;;;;;;;6.59;100.00;98930.44;4924451;29;20062;-81
2022/01/07 11:38:43;;;;;;;0.38;0.25;;;;;;;6.84;100.00;98921.63;4933153;29;20063;-80
2022/01/07 11:41:55;;;;;;;7.47;0.60;;;;;;;6.99;100.00;98927.22;4926431;29;20062;-80
2022/01/07 11:45:28;;;;;;;3.08;0.45;;;;;;;7.12;100.00;98922.19;4921841;29;20509;-81
2022/01/07 11:48:37;;;;;;;0.20;0.10;;;;;;;7.10;100.00;98913.59;4932439;29;20055;-81
2022/01/07 11:51:42;;;;;;;0.20;0.20;;;;;;;6.96;100.00;98910.78;4933646;29;20059;-80
2022/01/07 11:55:24;;;;;;;0.15;0.15;;;;;;;6.77;100.00;98905.41;4932301;29;20051;-80
2022/01/07 11:58:37;;;;;;;0.28;0.28;;;;;;;6.71;100.00;98909.28;4932354;29;20410;-80
2022/01/07 12:01:41;;;;;;;0.10;0.10;;;;;;;6.74;100.00;98911.09;4933213;29;20062;-81
2022/01/07 12:04:45;;;;;;;0.20;0.20;;;;;;;6.80;100.00;98898.13;4921902;29;20054;-81
2022/01/07 12:07:48;;;;;;;3.22;1.50;;;;;;;6.99;100.00;98902.31;4921500;29;20136;-81
2022/01/07 12:11:10;;;;;;;0.50;0.50;;;;;;;7.02;100.00;98906.88;4933247;29;20059;-82
2022/01/07 12:14:16;;;;;;;0.15;0.15;;;;;;;7.08;100.00;98927.13;4921629;29;20059;-80
2022/01/07 12:17:21;;;;;;;0.55;0.25;;;;;;;7.09;100.00;98916.81;4931963;29;20410;-81
2022/01/07 12:20:48;;;;;;;0.40;0.40;;;;;;;7.06;100.00;98918.53;4921977;29;20058;-82
2022/01/07 12:24:05;;;;;;;0.10;0.10;;;;;;;7.13;100.00;98926.47;4921425;29;20055;-82
2022/01/07 12:27:10;;;;;;;4.15;1.05;;;;;;;7.21;100.00;98919.31;4921349;29;20071;-82
2022/01/07 12:30:14;;;;;;;0.30;0.30;;;;;;;7.28;100.00;98907.88;4933407;29;20051;-82
2022/01/07 12:33:17;;;;;;;5.43;1.65;;;;;;;7.32;100.00;98908.44;4931860;29;20058;-82
2022/01/07 12:36:28;;;;;;;0.20;0.20;;;;;;;7.32;100.00;98916.00;4925639;29;20059;-82
2022/01/07 12:39:37;;;;;;;1.13;0.30;;;;;;;7.43;100.00;98908.66;4924552;29;20141;-81
2022/01/07 12:42:43;;;;;;;0.45;0.43;;;;;;;7.47;100.00;98912.00;4935753;29;20059;-81
2022/01/07 12:46:05;;;;;;;0.15;0.15;;;;;;;7.50;100.00;98910.28;4914896;29;20055;-80
2022/01/07 12:49:09;;;;;;;0.95;0.28;;;;;;;7.60;100.00;98912.47;4935434;29;20379;-79
2022/01/07 12:52:18;;;;;;;0.10;0.10;;;;;;;7.51;100.00;98909.78;4937371;29;20059;-79
2022/01/07 12:55:26;;;;;;;0.30;0.30;;;;;;;7.54;100.00;98903.31;4937461;29;20058;-79
2022/01/07 12:58:29;;;;;;;10.75;0.90;;;;;;;7.58;100.00;98898.31;4938378;29;20063;-80
2022/01/07 13:01:33;;;;;;;1.63;0.57;;;;;;;7.58;100.00;98887.25;4935835;29;20410;-79
2022/01/07 13:04:38;;;;;;;0.52;0.32;;;;;;;7.57;100.00;98899.59;4936459;29;20513;-82
2022/01/07 13:07:59;;;;;;;0.10;0.10;;;;;;;7.62;100.00;98898.91;4936220;29;20402;-84
2022/01/07 13:11:02;;;;;;;0.52;0.47;;;;;;;7.64;100.00;98901.94;4935192;29;20058;-81
2022/01/07 13:14:08;;;;;;;3.25;0.80;;;;;;;7.57;100.00;98896.03;4924535;29;20509;-82
2022/01/07 13:17:12;;;;;;;2.00;0.82;;;;;;;7.51;100.00;98887.63;4935320;29;20501;-82
2022/01/07 13:20:29;;;;;;;18.55;2.05;;;;;;;7.43;100.00;98891.25;4936111;29;20055;-82
2022/01/07 13:23:38;;;;;;;6.32;0.80;;;;;;;7.30;100.00;98883.25;4935351;29;20055;-82
2022/01/07 13:26:43;;;;;;;14.80;2.45;;;;;;;7.22;100.00;98887.63;4936491;29;20051;-81
2022/01/07 13:29:48;;;;;;;14.02;2.70;;;;;;;7.11;100.00;98887.44;4924201;29;20054;-82
2022/01/07 13:33:07;;;;;;;2.85;1.83;;;;;;;7.06;100.00;98898.41;4934885;29;20068;-81
2022/01/07 13:36:13;;;;;;;12.38;1.73;;;;;;;7.14;100.00;98897.56;4925290;29;20054;-81
2022/01/07 13:39:20;;;;;;;3.72;1.38;;;;;;;7.11;100.00;98904.03;4917687;29;20051;-81
2022/01/07 13:42:29;;;;;;;3.83;1.27;;;;;;;7.13;100.00;98909.09;4936293;29;20050;-86
2022/01/07 13:45:33;;;;;;;2.88;0.73;;;;;;;7.28;100.00;98912.63;4923632;29;20105;-81
2022/01/07 13:48:55;;;;;;;1.08;0.65;;;;;;;7.40;100.00;98906.06;4935530;29;20055;-80
2022/01/07 13:52:04;;;;;;;22.60;1.38;;;;;;;7.47;100.00;98898.13;4923673;29;20063;-81
2022/01/07 13:55:28;;;;;;;1.27;0.70;;;;;;;7.48;100.00;98891.38;4922522;29;20521;-80
2022/01/07 13:58:32;;;;;;;0.50;0.43;;;;;;;7.55;100.00;98891.00;4918079;29;20050;-80
2022/01/07 14:01:36;;;;;;;1.75;0.52;;;;;;;7.56;100.00;98889.72;4923226;29;20051;-80
2022/01/07 14:04:55;;;;;;;0.45;0.45;;;;;;;7.62;100.00;98876.72;4934926;29;20055;-80
2022/01/07 14:07:58;;;;;;;0.95;0.17;;;;;;;7.62;100.00;98881.53;4934822;29;20054;-81
2022/01/07 14:11:11;;;;;;;3.53;0.57;;;;;;;7.61;100.00;98880.75;4934112;29;20533;-80
2022/01/07 14:14:17;;;;;;;5.05;1.08;;;;;;;7.62;100.00;98887.81;4922743;29;20055;-79
2022/01/07 14:17:25;;;;;;;15.20;0.95;;;;;;;7.59;100.00;98899.09;4934554;29;20067;-80
2022/01/07 14:20:57;;;;;;;4.43;0.55;;;;;;;7.47;100.00;98898.13;4922993;29;20513;-80
2022/01/07 14:24:01;;;;;;;4.50;1.25;;;;;;;7.44;100.00;98899.09;4934877;29;20430;-83
2022/01/07 14:27:07;;;;;;;2.22;0.45;;;;;;;7.40;100.00;98909.63;4934005;29;20402;-81
2022/01/07 14:30:17;;;;;;;1.40;0.82;;;;;;;7.42;100.00;98907.13;4934341;29;20128;-80
2022/01/07 14:33:20;;;;;;;0.20;0.20;;;;;;;7.45;100.00;98910.97;4922597;29;20422;-81
2022/01/07 14:36:26;;;;;;;0.43;0.30;;;;;;;7.44;100.00;98910.19;4933845;29;20051;-82
2022/01/07 14:39:29;;;;;;;0.15;0.15;;;;;;;7.48;100.00;98910.75;4922702;29;20054;-82
2022/01/07 14:42:32;;;;;;;4.18;0.30;;;;;;;7.46;100.00;98906.94;4923720;29;20046;-81